sensor_id;sensor_type;location;lat;lon;timestamp;temperature;humidity
68977;SHT31;56029;52.568;13.588;2023-04-15T00:02:17;7.70;99.99
68977;SHT31;56029;52.568;13.588;2023-04-15T00:04:45;7.70;99.99
68977;SHT31;56029;52.568;13.588;2023-04-15T00:07:10;7.70;99.99
68977;SHT31;56029;52.568;13.588;2023-04-15T00:09:36;7.69;99.99
68977;SHT31;56029;52.568;13.588;2023-04-15T00:12:02;7.66;99.99
68977;SHT31;56029;52.568;13.588;2023-04-15T00:14:28;7.66;99.99
68977;SHT31;56029;52.568;13.588;2023-04-15T00:16:53;7.64;99.99
68977;SHT31;56029;52.568;13.588;2023-04-15T00:19:20;7.64;99.99
68977;SHT31;56029;52.568;13.588;2023-04-15T00:21:46;7.61;99.99
68977;SHT31;56029;52.568;13.588;2023-04-15T00:24:11;7.61;99.99
68977;SHT31;56029;52.568;13.588;2023-04-15T00:26:38;7.61;99.99
68977;SHT31;56029;52.568;13.588;2023-04-15T00:29:04;7.61;99.99
68977;SHT31;56029;52.568;13.588;2023-04-15T00:31:30;7.63;99.99
68977;SHT31;56029;52.568;13.588;2023-04-15T00:33:55;7.66;99.99
68977;SHT31;56029;52.568;13.588;2023-04-15T00:36:21;7.67;99.99
68977;SHT31;56029;52.568;13.588;2023-04-15T00:38:47;7.70;99.99
68977;SHT31;56029;52.568;13.588;2023-04-15T00:41:13;7.67;99.99
68977;SHT31;56029;52.568;13.588;2023-04-15T00:43:39;7.70;99.99
68977;SHT31;56029;52.568;13.588;2023-04-15T00:46:05;7.70;99.99
68977;SHT31;56029;52.568;13.588;2023-04-15T00:48:31;7.69;99.99
68977;SHT31;56029;52.568;13.588;2023-04-15T00:50:56;7.70;99.99
68977;SHT31;56029;52.568;13.588;2023-04-15T00:53:22;7.69;99.99
68977;SHT31;56029;52.568;13.588;2023-04-15T00:55:48;7.67;99.99
68977;SHT31;56029;52.568;13.588;2023-04-15T00:58:15;7.69;99.99
68977;SHT31;56029;52.568;13.588;2023-04-15T01:00:42;7.69;99.99
68977;SHT31;56029;52.568;13.588;2023-04-15T01:03:07;7.64;99.99
68977;SHT31;56029;52.568;13.588;2023-04-15T01:05:33;7.67;99.99
68977;SHT31;56029;52.568;13.588;2023-04-15T01:07:59;7.67;99.99
68977;SHT31;56029;52.568;13.588;2023-04-15T01:10:24;7.66;99.99
68977;SHT31;56029;52.568;13.588;2023-04-15T01:12:50;7.67;99.99
68977;SHT31;56029;52.568;13.588;2023-04-15T01:15:16;7.69;99.99
68977;SHT31;56029;52.568;13.588;2023-04-15T01:17:42;7.67;99.99
68977;SHT31;56029;52.568;13.588;2023-04-15T01:20:08;7.70;99.99
68977;SHT31;56029;52.568;13.588;2023-04-15T01:22:36;7.66;99.99
68977;SHT31;56029;52.568;13.588;2023-04-15T01:25:16;7.64;99.99
68977;SHT31;56029;52.568;13.588;2023-04-15T01:27:42;7.64;99.99
68977;SHT31;56029;52.568;13.588;2023-04-15T01:30:08;7.63;99.99
68977;SHT31;56029;52.568;13.588;2023-04-15T01:32:35;7.66;99.99
68977;SHT31;56029;52.568;13.588;2023-04-15T01:35:01;7.69;99.99
68977;SHT31;56029;52.568;13.588;2023-04-15T01:37:27;7.69;99.99
68977;SHT31;56029;52.568;13.588;2023-04-15T01:39:53;7.69;99.99
68977;SHT31;56029;52.568;13.588;2023-04-15T01:42:20;7.70;99.99
68977;SHT31;56029;52.568;13.588;2023-04-15T01:44:46;7.69;99.99
68977;SHT31;56029;52.568;13.588;2023-04-15T01:47:12;7.70;99.99
68977;SHT31;56029;52.568;13.588;2023-04-15T01:49:37;7.71;99.99
68977;SHT31;56029;52.568;13.588;2023-04-15T01:52:03;7.71;99.99
68977;SHT31;56029;52.568;13.588;2023-04-15T01:54:28;7.75;99.99
68977;SHT31;56029;52.568;13.588;2023-04-15T01:56:54;7.77;99.99
68977;SHT31;56029;52.568;13.588;2023-04-15T01:59:21;7.80;99.99
68977;SHT31;56029;52.568;13.588;2023-04-15T02:01:47;7.80;99.99
68977;SHT31;56029;52.568;13.588;2023-04-15T02:04:12;7.84;99.99
68977;SHT31;56029;52.568;13.588;2023-04-15T02:06:42;7.82;99.99
68977;SHT31;56029;52.568;13.588;2023-04-15T02:09:08;7.88;99.99
68977;SHT31;56029;52.568;13.588;2023-04-15T02:11:34;7.87;99.99
68977;SHT31;56029;52.568;13.588;2023-04-15T02:14:02;7.87;99.99
68977;SHT31;56029;52.568;13.588;2023-04-15T02:16:29;7.85;99.99
68977;SHT31;56029;52.568;13.588;2023-04-15T02:18:54;7.85;99.99
68977;SHT31;56029;52.568;13.588;2023-04-15T02:21:20;7.85;99.99
68977;SHT31;56029;52.568;13.588;2023-04-15T02:23:45;7.88;99.99
68977;SHT31;56029;52.568;13.588;2023-04-15T02:26:13;7.88;99.99
68977;SHT31;56029;52.568;13.588;2023-04-15T02:28:38;7.87;99.99
68977;SHT31;56029;52.568;13.588;2023-04-15T02:31:07;7.87;99.99
68977;SHT31;56029;52.568;13.588;2023-04-15T02:33:34;7.84;99.99
68977;SHT31;56029;52.568;13.588;2023-04-15T02:36:00;7.82;99.99
68977;SHT31;56029;52.568;13.588;2023-04-15T02:38:25;7.88;99.99
68977;SHT31;56029;52.568;13.588;2023-04-15T02:40:51;7.85;99.99
68977;SHT31;56029;52.568;13.588;2023-04-15T02:43:16;7.88;99.99
68977;SHT31;56029;52.568;13.588;2023-04-15T02:45:43;7.87;99.99
68977;SHT31;56029;52.568;13.588;2023-04-15T02:48:09;7.84;99.99
68977;SHT31;56029;52.568;13.588;2023-04-15T02:50:35;7.85;99.99
68977;SHT31;56029;52.568;13.588;2023-04-15T02:53:02;7.90;99.99
68977;SHT31;56029;52.568;13.588;2023-04-15T02:55:28;7.90;99.99
68977;SHT31;56029;52.568;13.588;2023-04-15T02:57:53;7.92;99.99
68977;SHT31;56029;52.568;13.588;2023-04-15T03:00:19;7.88;99.99
68977;SHT31;56029;52.568;13.588;2023-04-15T03:02:45;7.91;99.99
68977;SHT31;56029;52.568;13.588;2023-04-15T03:05:12;7.91;99.99
68977;SHT31;56029;52.568;13.588;2023-04-15T03:07:38;7.91;99.99
68977;SHT31;56029;52.568;13.588;2023-04-15T03:10:06;7.94;99.99
68977;SHT31;56029;52.568;13.588;2023-04-15T03:12:32;7.98;99.99
68977;SHT31;56029;52.568;13.588;2023-04-15T03:14:57;7.98;99.99
68977;SHT31;56029;52.568;13.588;2023-04-15T03:17:24;7.95;99.99
68977;SHT31;56029;52.568;13.588;2023-04-15T03:19:50;7.97;99.99
68977;SHT31;56029;52.568;13.588;2023-04-15T03:22:15;7.95;99.99
68977;SHT31;56029;52.568;13.588;2023-04-15T03:24:41;7.95;99.99
68977;SHT31;56029;52.568;13.588;2023-04-15T03:27:06;7.98;99.99
68977;SHT31;56029;52.568;13.588;2023-04-15T03:29:32;7.95;99.99
68977;SHT31;56029;52.568;13.588;2023-04-15T03:31:58;8.01;99.99
68977;SHT31;56029;52.568;13.588;2023-04-15T03:34:23;7.98;99.99
68977;SHT31;56029;52.568;13.588;2023-04-15T03:36:49;8.02;99.99
68977;SHT31;56029;52.568;13.588;2023-04-15T03:39:15;7.99;99.99
68977;SHT31;56029;52.568;13.588;2023-04-15T03:41:40;7.98;99.99
68977;SHT31;56029;52.568;13.588;2023-04-15T03:44:06;8.03;99.99
68977;SHT31;56029;52.568;13.588;2023-04-15T03:46:31;7.99;99.99
68977;SHT31;56029;52.568;13.588;2023-04-15T03:48:57;7.98;99.99
68977;SHT31;56029;52.568;13.588;2023-04-15T03:51:23;8.01;99.99
68977;SHT31;56029;52.568;13.588;2023-04-15T03:53:49;8.03;99.99
68977;SHT31;56029;52.568;13.588;2023-04-15T03:56:15;8.03;99.99
68977;SHT31;56029;52.568;13.588;2023-04-15T03:58:40;8.03;99.99
68977;SHT31;56029;52.568;13.588;2023-04-15T04:01:06;8.03;99.99
68977;SHT31;56029;52.568;13.588;2023-04-15T04:03:32;8.05;99.99
68977;SHT31;56029;52.568;13.588;2023-04-15T04:05:58;8.06;99.99
68977;SHT31;56029;52.568;13.588;2023-04-15T04:08:24;8.06;99.99
68977;SHT31;56029;52.568;13.588;2023-04-15T04:10:49;8.03;99.99
68977;SHT31;56029;52.568;13.588;2023-04-15T04:13:15;8.08;99.99
68977;SHT31;56029;52.568;13.588;2023-04-15T04:15:41;8.09;99.99
68977;SHT31;56029;52.568;13.588;2023-04-15T04:18:06;8.09;99.99
68977;SHT31;56029;52.568;13.588;2023-04-15T04:20:32;8.13;99.99
68977;SHT31;56029;52.568;13.588;2023-04-15T04:22:58;8.09;99.99
68977;SHT31;56029;52.568;13.588;2023-04-15T04:25:23;8.09;99.99
68977;SHT31;56029;52.568;13.588;2023-04-15T04:27:50;8.08;99.99
68977;SHT31;56029;52.568;13.588;2023-04-15T04:30:15;8.11;99.99
68977;SHT31;56029;52.568;13.588;2023-04-15T04:32:41;8.13;99.99
68977;SHT31;56029;52.568;13.588;2023-04-15T04:35:07;8.13;99.99
68977;SHT31;56029;52.568;13.588;2023-04-15T04:37:33;8.15;99.99
68977;SHT31;56029;52.568;13.588;2023-04-15T04:39:58;8.13;99.99
68977;SHT31;56029;52.568;13.588;2023-04-15T04:42:24;8.15;99.99
68977;SHT31;56029;52.568;13.588;2023-04-15T04:44:49;8.13;99.99
68977;SHT31;56029;52.568;13.588;2023-04-15T04:47:15;8.16;99.99
68977;SHT31;56029;52.568;13.588;2023-04-15T04:49:40;8.19;99.99
68977;SHT31;56029;52.568;13.588;2023-04-15T04:52:06;8.21;99.99
68977;SHT31;56029;52.568;13.588;2023-04-15T04:54:32;8.21;99.99
68977;SHT31;56029;52.568;13.588;2023-04-15T04:56:58;8.26;99.99
68977;SHT31;56029;52.568;13.588;2023-04-15T04:59:23;8.24;99.99
68977;SHT31;56029;52.568;13.588;2023-04-15T05:01:49;8.25;99.99
68977;SHT31;56029;52.568;13.588;2023-04-15T05:04:14;8.28;99.99
68977;SHT31;56029;52.568;13.588;2023-04-15T05:06:40;8.30;99.99
68977;SHT31;56029;52.568;13.588;2023-04-15T05:09:06;8.33;99.99
68977;SHT31;56029;52.568;13.588;2023-04-15T05:11:32;8.38;99.99
68977;SHT31;56029;52.568;13.588;2023-04-15T05:13:57;8.36;99.99
68977;SHT31;56029;52.568;13.588;2023-04-15T05:16:26;8.38;99.99
68977;SHT31;56029;52.568;13.588;2023-04-15T05:18:51;8.39;99.99
68977;SHT31;56029;52.568;13.588;2023-04-15T05:21:17;8.38;99.99
68977;SHT31;56029;52.568;13.588;2023-04-15T05:23:42;8.42;99.99
68977;SHT31;56029;52.568;13.588;2023-04-15T05:26:08;8.40;99.99
68977;SHT31;56029;52.568;13.588;2023-04-15T05:28:33;8.43;99.99
68977;SHT31;56029;52.568;13.588;2023-04-15T05:30:59;8.48;99.99
68977;SHT31;56029;52.568;13.588;2023-04-15T05:33:25;8.45;99.99
68977;SHT31;56029;52.568;13.588;2023-04-15T05:35:50;8.52;99.99
68977;SHT31;56029;52.568;13.588;2023-04-15T05:38:16;8.54;99.99
68977;SHT31;56029;52.568;13.588;2023-04-15T05:40:41;8.57;99.99
68977;SHT31;56029;52.568;13.588;2023-04-15T05:43:07;8.61;99.99
68977;SHT31;56029;52.568;13.588;2023-04-15T05:45:33;8.64;99.99
68977;SHT31;56029;52.568;13.588;2023-04-15T05:47:58;8.69;99.99
68977;SHT31;56029;52.568;13.588;2023-04-15T05:50:24;8.70;99.99
68977;SHT31;56029;52.568;13.588;2023-04-15T05:52:49;8.74;99.99
68977;SHT31;56029;52.568;13.588;2023-04-15T05:55:15;8.77;99.99
68977;SHT31;56029;52.568;13.588;2023-04-15T05:57:40;8.80;99.99
68977;SHT31;56029;52.568;13.588;2023-04-15T06:00:06;8.80;99.99
68977;SHT31;56029;52.568;13.588;2023-04-15T06:02:32;8.81;99.99
68977;SHT31;56029;52.568;13.588;2023-04-15T06:04:58;8.88;99.99
68977;SHT31;56029;52.568;13.588;2023-04-15T06:07:23;8.91;99.99
68977;SHT31;56029;52.568;13.588;2023-04-15T06:09:49;9.00;99.99
68977;SHT31;56029;52.568;13.588;2023-04-15T06:12:14;9.03;99.99
68977;SHT31;56029;52.568;13.588;2023-04-15T06:14:41;9.04;99.99
68977;SHT31;56029;52.568;13.588;2023-04-15T06:17:07;9.08;99.99
68977;SHT31;56029;52.568;13.588;2023-04-15T06:19:33;9.10;99.99
68977;SHT31;56029;52.568;13.588;2023-04-15T06:21:59;9.14;99.99
68977;SHT31;56029;52.568;13.588;2023-04-15T06:24:25;9.22;99.99
68977;SHT31;56029;52.568;13.588;2023-04-15T06:26:50;9.18;99.99
68977;SHT31;56029;52.568;13.588;2023-04-15T06:29:16;9.21;99.99
68977;SHT31;56029;52.568;13.588;2023-04-15T06:31:41;9.19;99.99
68977;SHT31;56029;52.568;13.588;2023-04-15T06:34:07;9.22;99.99
68977;SHT31;56029;52.568;13.588;2023-04-15T06:36:32;9.22;99.99
68977;SHT31;56029;52.568;13.588;2023-04-15T06:38:58;9.31;99.99
68977;SHT31;56029;52.568;13.588;2023-04-15T06:41:23;9.39;99.99
68977;SHT31;56029;52.568;13.588;2023-04-15T06:43:49;9.35;99.99
68977;SHT31;56029;52.568;13.588;2023-04-15T06:46:15;9.43;99.99
68977;SHT31;56029;52.568;13.588;2023-04-15T06:48:40;9.49;99.99
68977;SHT31;56029;52.568;13.588;2023-04-15T06:51:06;9.46;99.99
68977;SHT31;56029;52.568;13.588;2023-04-15T06:53:31;9.43;99.99
68977;SHT31;56029;52.568;13.588;2023-04-15T06:55:57;9.39;99.99
68977;SHT31;56029;52.568;13.588;2023-04-15T06:58:23;9.42;99.53
68977;SHT31;56029;52.568;13.588;2023-04-15T07:00:48;9.36;99.89
68977;SHT31;56029;52.568;13.588;2023-04-15T07:03:14;9.45;99.99
68977;SHT31;56029;52.568;13.588;2023-04-15T07:05:39;9.49;99.99
68977;SHT31;56029;52.568;13.588;2023-04-15T07:08:06;9.50;99.99
68977;SHT31;56029;52.568;13.588;2023-04-15T07:10:34;9.46;99.99
68977;SHT31;56029;52.568;13.588;2023-04-15T07:13:00;9.55;99.99
68977;SHT31;56029;52.568;13.588;2023-04-15T07:15:26;9.69;99.99
68977;SHT31;56029;52.568;13.588;2023-04-15T07:17:52;9.76;99.99
68977;SHT31;56029;52.568;13.588;2023-04-15T07:20:17;9.90;99.99
68977;SHT31;56029;52.568;13.588;2023-04-15T07:22:43;9.73;99.99
68977;SHT31;56029;52.568;13.588;2023-04-15T07:25:08;9.80;99.99
68977;SHT31;56029;52.568;13.588;2023-04-15T07:27:34;9.69;99.49
68977;SHT31;56029;52.568;13.588;2023-04-15T07:30:01;9.65;99.46
68977;SHT31;56029;52.568;13.588;2023-04-15T07:32:26;9.72;99.99
68977;SHT31;56029;52.568;13.588;2023-04-15T07:34:52;9.72;99.99
68977;SHT31;56029;52.568;13.588;2023-04-15T07:37:18;9.58;99.99
68977;SHT31;56029;52.568;13.588;2023-04-15T07:39:44;9.56;99.99
68977;SHT31;56029;52.568;13.588;2023-04-15T07:42:09;9.39;99.70
68977;SHT31;56029;52.568;13.588;2023-04-15T07:44:35;9.48;99.99
68977;SHT31;56029;52.568;13.588;2023-04-15T07:47:01;9.32;99.99
68977;SHT31;56029;52.568;13.588;2023-04-15T07:49:27;9.32;99.99
68977;SHT31;56029;52.568;13.588;2023-04-15T07:51:53;9.39;99.99
68977;SHT31;56029;52.568;13.588;2023-04-15T07:54:19;9.32;99.99
68977;SHT31;56029;52.568;13.588;2023-04-15T07:56:44;9.32;99.99
68977;SHT31;56029;52.568;13.588;2023-04-15T07:59:10;9.32;99.99
68977;SHT31;56029;52.568;13.588;2023-04-15T08:01:36;9.32;99.61
68977;SHT31;56029;52.568;13.588;2023-04-15T08:04:02;9.31;99.99
68977;SHT31;56029;52.568;13.588;2023-04-15T08:06:28;9.42;99.99
68977;SHT31;56029;52.568;13.588;2023-04-15T08:08:54;9.43;99.99
68977;SHT31;56029;52.568;13.588;2023-04-15T08:11:20;9.40;99.08
68977;SHT31;56029;52.568;13.588;2023-04-15T08:13:46;9.40;99.65
68977;SHT31;56029;52.568;13.588;2023-04-15T08:16:22;9.45;99.99
68977;SHT31;56029;52.568;13.588;2023-04-15T08:18:49;9.49;99.88
68977;SHT31;56029;52.568;13.588;2023-04-15T08:21:16;9.53;99.51
68977;SHT31;56029;52.568;13.588;2023-04-15T08:23:44;9.55;99.70
68977;SHT31;56029;52.568;13.588;2023-04-15T08:26:10;9.63;99.99
68977;SHT31;56029;52.568;13.588;2023-04-15T08:28:38;9.62;99.99
68977;SHT31;56029;52.568;13.588;2023-04-15T08:31:04;9.72;99.99
68977;SHT31;56029;52.568;13.588;2023-04-15T08:33:29;9.80;99.99
68977;SHT31;56029;52.568;13.588;2023-04-15T08:35:55;9.79;99.52
68977;SHT31;56029;52.568;13.588;2023-04-15T08:38:21;9.87;99.99
68977;SHT31;56029;52.568;13.588;2023-04-15T08:40:47;9.77;99.88
68977;SHT31;56029;52.568;13.588;2023-04-15T08:43:19;9.66;99.06
68977;SHT31;56029;52.568;13.588;2023-04-15T08:45:49;9.66;99.15
68977;SHT31;56029;52.568;13.588;2023-04-15T08:48:16;9.62;99.40
68977;SHT31;56029;52.568;13.588;2023-04-15T08:50:42;9.66;99.47
68977;SHT31;56029;52.568;13.588;2023-04-15T08:53:08;9.67;99.61
68977;SHT31;56029;52.568;13.588;2023-04-15T08:55:35;9.65;99.10
68977;SHT31;56029;52.568;13.588;2023-04-15T08:58:03;9.65;99.09
68977;SHT31;56029;52.568;13.588;2023-04-15T09:00:29;9.72;99.84
68977;SHT31;56029;52.568;13.588;2023-04-15T09:02:55;9.70;99.99
68977;SHT31;56029;52.568;13.588;2023-04-15T09:05:21;9.72;99.57
68977;SHT31;56029;52.568;13.588;2023-04-15T09:07:49;9.72;99.03
68977;SHT31;56029;52.568;13.588;2023-04-15T09:10:14;9.86;99.99
68977;SHT31;56029;52.568;13.588;2023-04-15T09:12:40;9.87;99.24
68977;SHT31;56029;52.568;13.588;2023-04-15T09:15:07;9.82;98.95
68977;SHT31;56029;52.568;13.588;2023-04-15T09:17:44;9.82;98.85
68977;SHT31;56029;52.568;13.588;2023-04-15T09:20:11;9.82;99.74
68977;SHT31;56029;52.568;13.588;2023-04-15T09:22:39;9.82;98.98
68977;SHT31;56029;52.568;13.588;2023-04-15T09:27:50;9.89;99.47
68977;SHT31;56029;52.568;13.588;2023-04-15T09:30:16;9.85;98.69
68977;SHT31;56029;52.568;13.588;2023-04-15T09:32:59;9.86;99.45
68977;SHT31;56029;52.568;13.588;2023-04-15T09:35:27;9.87;98.77
68977;SHT31;56029;52.568;13.588;2023-04-15T09:38:01;9.91;98.98
68977;SHT31;56029;52.568;13.588;2023-04-15T09:40:45;9.91;99.54
68977;SHT31;56029;52.568;13.588;2023-04-15T09:43:10;9.90;99.25
68977;SHT31;56029;52.568;13.588;2023-04-15T09:45:38;9.86;98.51
68977;SHT31;56029;52.568;13.588;2023-04-15T09:48:23;9.90;99.38
68977;SHT31;56029;52.568;13.588;2023-04-15T09:50:56;9.93;99.53
68977;SHT31;56029;52.568;13.588;2023-04-15T09:53:23;9.97;99.27
68977;SHT31;56029;52.568;13.588;2023-04-15T09:55:54;10.04;99.99
68977;SHT31;56029;52.568;13.588;2023-04-15T09:58:22;10.06;98.84
68977;SHT31;56029;52.568;13.588;2023-04-15T10:00:49;10.03;99.32
68977;SHT31;56029;52.568;13.588;2023-04-15T10:05:53;9.97;99.47
68977;SHT31;56029;52.568;13.588;2023-04-15T10:08:20;10.04;99.99
68977;SHT31;56029;52.568;13.588;2023-04-15T10:10:47;9.98;99.99
68977;SHT31;56029;52.568;13.588;2023-04-15T10:13:16;9.93;99.99
68977;SHT31;56029;52.568;13.588;2023-04-15T10:15:44;10.01;99.99
68977;SHT31;56029;52.568;13.588;2023-04-15T10:18:15;9.97;99.95
68977;SHT31;56029;52.568;13.588;2023-04-15T10:20:41;10.00;99.99
68977;SHT31;56029;52.568;13.588;2023-04-15T10:23:08;9.98;99.99
68977;SHT31;56029;52.568;13.588;2023-04-15T10:25:34;10.07;99.99
68977;SHT31;56029;52.568;13.588;2023-04-15T10:28:01;10.10;99.99
68977;SHT31;56029;52.568;13.588;2023-04-15T10:30:27;10.10;99.99
68977;SHT31;56029;52.568;13.588;2023-04-15T10:32:53;10.11;99.99
68977;SHT31;56029;52.568;13.588;2023-04-15T10:35:20;10.13;99.99
68977;SHT31;56029;52.568;13.588;2023-04-15T10:37:45;10.18;99.99
68977;SHT31;56029;52.568;13.588;2023-04-15T10:40:31;10.21;99.99
68977;SHT31;56029;52.568;13.588;2023-04-15T10:42:58;10.20;99.99
68977;SHT31;56029;52.568;13.588;2023-04-15T10:45:26;10.25;99.99
68977;SHT31;56029;52.568;13.588;2023-04-15T10:47:56;10.27;99.99
68977;SHT31;56029;52.568;13.588;2023-04-15T10:50:26;10.33;99.99
68977;SHT31;56029;52.568;13.588;2023-04-15T10:52:54;10.35;99.99
68977;SHT31;56029;52.568;13.588;2023-04-15T10:55:23;10.37;99.99
68977;SHT31;56029;52.568;13.588;2023-04-15T10:57:53;10.45;99.99
68977;SHT31;56029;52.568;13.588;2023-04-15T11:00:24;10.37;99.99
68977;SHT31;56029;52.568;13.588;2023-04-15T11:05:51;10.38;99.99
68977;SHT31;56029;52.568;13.588;2023-04-15T11:08:17;10.25;99.99
68977;SHT31;56029;52.568;13.588;2023-04-15T11:15:36;10.24;99.99
68977;SHT31;56029;52.568;13.588;2023-04-15T11:20:43;10.24;99.99
68977;SHT31;56029;52.568;13.588;2023-04-15T11:23:10;10.34;99.99
68977;SHT31;56029;52.568;13.588;2023-04-15T11:25:36;10.27;99.99
68977;SHT31;56029;52.568;13.588;2023-04-15T11:28:02;10.22;99.99
68977;SHT31;56029;52.568;13.588;2023-04-15T11:30:30;10.25;99.99
68977;SHT31;56029;52.568;13.588;2023-04-15T11:32:58;10.22;99.99
68977;SHT31;56029;52.568;13.588;2023-04-15T11:35:24;10.20;99.99
68977;SHT31;56029;52.568;13.588;2023-04-15T11:37:50;10.25;99.99
68977;SHT31;56029;52.568;13.588;2023-04-15T11:40:23;10.22;99.99
68977;SHT31;56029;52.568;13.588;2023-04-15T11:43:09;10.24;99.99
68977;SHT31;56029;52.568;13.588;2023-04-15T11:45:36;10.20;99.99
68977;SHT31;56029;52.568;13.588;2023-04-15T11:48:09;10.24;99.99
68977;SHT31;56029;52.568;13.588;2023-04-15T11:50:37;10.20;99.99
68977;SHT31;56029;52.568;13.588;2023-04-15T11:53:05;10.20;99.99
68977;SHT31;56029;52.568;13.588;2023-04-15T11:55:40;10.21;99.99
68977;SHT31;56029;52.568;13.588;2023-04-15T12:00:38;10.22;99.99
68977;SHT31;56029;52.568;13.588;2023-04-15T12:03:24;10.25;99.99
68977;SHT31;56029;52.568;13.588;2023-04-15T12:06:09;10.34;99.99
68977;SHT31;56029;52.568;13.588;2023-04-15T12:11:16;10.58;99.99
68977;SHT31;56029;52.568;13.588;2023-04-15T12:13:48;10.56;99.99
68977;SHT31;56029;52.568;13.588;2023-04-15T12:16:20;10.59;99.99
68977;SHT31;56029;52.568;13.588;2023-04-15T12:18:50;10.48;99.99
68977;SHT31;56029;52.568;13.588;2023-04-15T12:21:19;10.55;99.99
68977;SHT31;56029;52.568;13.588;2023-04-15T12:23:52;10.61;99.99
68977;SHT31;56029;52.568;13.588;2023-04-15T12:26:46;10.46;99.99
68977;SHT31;56029;52.568;13.588;2023-04-15T12:29:13;10.51;99.99
68977;SHT31;56029;52.568;13.588;2023-04-15T12:32:04;10.41;99.99
68977;SHT31;56029;52.568;13.588;2023-04-15T12:34:37;10.42;99.99
68977;SHT31;56029;52.568;13.588;2023-04-15T12:37:06;10.54;99.99
68977;SHT31;56029;52.568;13.588;2023-04-15T12:39:39;10.44;99.99
68977;SHT31;56029;52.568;13.588;2023-04-15T12:42:06;10.42;99.99
68977;SHT31;56029;52.568;13.588;2023-04-15T12:44:32;10.42;99.99
68977;SHT31;56029;52.568;13.588;2023-04-15T12:46:58;10.48;99.99
68977;SHT31;56029;52.568;13.588;2023-04-15T12:49:24;10.59;99.99
68977;SHT31;56029;52.568;13.588;2023-04-15T12:51:52;10.58;99.99
68977;SHT31;56029;52.568;13.588;2023-04-15T12:54:19;10.52;99.99
68977;SHT31;56029;52.568;13.588;2023-04-15T12:56:45;10.49;99.99
68977;SHT31;56029;52.568;13.588;2023-04-15T12:59:12;10.61;99.99
68977;SHT31;56029;52.568;13.588;2023-04-15T13:01:38;10.66;99.99
68977;SHT31;56029;52.568;13.588;2023-04-15T13:04:04;10.59;99.99
68977;SHT31;56029;52.568;13.588;2023-04-15T13:06:30;10.55;99.99
68977;SHT31;56029;52.568;13.588;2023-04-15T13:08:58;10.54;99.99
68977;SHT31;56029;52.568;13.588;2023-04-15T13:11:24;10.46;99.99
68977;SHT31;56029;52.568;13.588;2023-04-15T13:13:50;10.54;99.99
68977;SHT31;56029;52.568;13.588;2023-04-15T13:16:17;10.51;99.99
68977;SHT31;56029;52.568;13.588;2023-04-15T13:18:43;10.56;99.99
68977;SHT31;56029;52.568;13.588;2023-04-15T13:21:11;10.44;99.99
68977;SHT31;56029;52.568;13.588;2023-04-15T13:23:36;10.34;99.99
68977;SHT31;56029;52.568;13.588;2023-04-15T13:26:02;10.34;99.99
68977;SHT31;56029;52.568;13.588;2023-04-15T13:28:28;10.27;99.99
68977;SHT31;56029;52.568;13.588;2023-04-15T13:30:54;10.27;99.99
68977;SHT31;56029;52.568;13.588;2023-04-15T13:33:19;10.31;99.99
68977;SHT31;56029;52.568;13.588;2023-04-15T13:35:45;10.30;99.99
68977;SHT31;56029;52.568;13.588;2023-04-15T13:38:10;10.35;99.99
68977;SHT31;56029;52.568;13.588;2023-04-15T13:40:36;10.31;99.99
68977;SHT31;56029;52.568;13.588;2023-04-15T13:43:01;10.37;99.99
68977;SHT31;56029;52.568;13.588;2023-04-15T13:45:28;10.35;99.99
68977;SHT31;56029;52.568;13.588;2023-04-15T13:47:55;10.41;99.99
68977;SHT31;56029;52.568;13.588;2023-04-15T13:50:21;10.45;99.99
68977;SHT31;56029;52.568;13.588;2023-04-15T13:52:46;10.46;99.99
68977;SHT31;56029;52.568;13.588;2023-04-15T13:55:12;10.48;99.99
68977;SHT31;56029;52.568;13.588;2023-04-15T13:57:37;10.51;99.99
68977;SHT31;56029;52.568;13.588;2023-04-15T14:00:04;10.51;99.99
68977;SHT31;56029;52.568;13.588;2023-04-15T14:02:30;10.59;99.99
68977;SHT31;56029;52.568;13.588;2023-04-15T14:04:56;10.49;99.99
68977;SHT31;56029;52.568;13.588;2023-04-15T14:07:21;10.46;99.99
68977;SHT31;56029;52.568;13.588;2023-04-15T14:09:47;10.46;99.99
68977;SHT31;56029;52.568;13.588;2023-04-15T14:12:13;10.44;99.99
68977;SHT31;56029;52.568;13.588;2023-04-15T14:14:39;10.45;99.99
68977;SHT31;56029;52.568;13.588;2023-04-15T14:17:05;10.37;99.99
68977;SHT31;56029;52.568;13.588;2023-04-15T14:19:31;10.34;99.99
68977;SHT31;56029;52.568;13.588;2023-04-15T14:21:57;10.31;99.99
68977;SHT31;56029;52.568;13.588;2023-04-15T14:24:23;10.34;99.99
68977;SHT31;56029;52.568;13.588;2023-04-15T14:26:49;10.37;99.99
68977;SHT31;56029;52.568;13.588;2023-04-15T14:29:14;10.45;99.99
68977;SHT31;56029;52.568;13.588;2023-04-15T14:31:41;10.42;99.99
68977;SHT31;56029;52.568;13.588;2023-04-15T14:34:07;10.38;99.99
68977;SHT31;56029;52.568;13.588;2023-04-15T14:36:32;10.34;99.99
68977;SHT31;56029;52.568;13.588;2023-04-15T14:38:58;10.28;99.99
68977;SHT31;56029;52.568;13.588;2023-04-15T14:41:23;10.24;99.99
68977;SHT31;56029;52.568;13.588;2023-04-15T14:43:49;10.22;99.99
68977;SHT31;56029;52.568;13.588;2023-04-15T14:46:14;10.20;99.99
68977;SHT31;56029;52.568;13.588;2023-04-15T14:48:41;10.21;99.99
68977;SHT31;56029;52.568;13.588;2023-04-15T14:51:06;10.14;99.99
68977;SHT31;56029;52.568;13.588;2023-04-15T14:53:32;10.17;99.99
68977;SHT31;56029;52.568;13.588;2023-04-15T14:55:58;10.11;99.99
68977;SHT31;56029;52.568;13.588;2023-04-15T14:58:24;10.11;99.99
68977;SHT31;56029;52.568;13.588;2023-04-15T15:00:49;10.11;99.99
68977;SHT31;56029;52.568;13.588;2023-04-15T15:03:15;10.14;99.99
68977;SHT31;56029;52.568;13.588;2023-04-15T15:05:42;10.22;99.99
68977;SHT31;56029;52.568;13.588;2023-04-15T15:08:08;10.20;99.99
68977;SHT31;56029;52.568;13.588;2023-04-15T15:10:34;10.14;99.99
68977;SHT31;56029;52.568;13.588;2023-04-15T15:13:05;10.10;99.99
68977;SHT31;56029;52.568;13.588;2023-04-15T15:15:31;10.14;99.99
68977;SHT31;56029;52.568;13.588;2023-04-15T15:17:57;10.14;99.99
68977;SHT31;56029;52.568;13.588;2023-04-15T15:20:23;10.08;99.99
68977;SHT31;56029;52.568;13.588;2023-04-15T15:22:49;10.14;99.99
68977;SHT31;56029;52.568;13.588;2023-04-15T15:25:15;10.11;99.99
68977;SHT31;56029;52.568;13.588;2023-04-15T15:27:41;10.16;99.99
68977;SHT31;56029;52.568;13.588;2023-04-15T15:30:07;10.17;99.99
68977;SHT31;56029;52.568;13.588;2023-04-15T15:32:33;10.22;99.99
68977;SHT31;56029;52.568;13.588;2023-04-15T15:34:59;10.27;99.99
68977;SHT31;56029;52.568;13.588;2023-04-15T15:37:25;10.25;99.99
68977;SHT31;56029;52.568;13.588;2023-04-15T15:39:51;10.30;99.99
68977;SHT31;56029;52.568;13.588;2023-04-15T15:42:20;10.41;99.99
68977;SHT31;56029;52.568;13.588;2023-04-15T15:44:46;10.44;99.99